Terminal Aerodrome Forecast
Issued by NWS

Home | Current Version | Previous Version | Text Only | Print | Product List | Glossary On
Versions: 1 2 3 4 5 6 7 8 9 10 11 12 13 14 15
000
FTUS43 KMPX 311700
TAFRWF
TAF
KRWF 311720Z 3118/0118 02007KT P6SM SKC
     FM312300 VRB03KT P6SM SKC
     FM010800 15007KT P6SM SCT150
     FM011400 16016G24KT P6SM SCT100 SCT200=

USA.gov is the U.S. government's official web portal to all federal, state and local government web resources and services.